Oakbrook, Washington
Current Conditions -  °F | °C
As of 10:58 AM on Monday 20 Oct 2014 (Local Time) from KTCM Reporting Station
Broken Clouds Broken Clouds  
Wind Chill: 58°   Ceiling: 8500
Heat Index: 58°   Visibility: 10mi
Dew Point: 58°   Wind: 7mph
Humidity: 97%   Direction: 200°SSW
Pressure: 29.76"   Gusts: NA
Location:  47.1809°N, 122.548°W
Report Text: KTCM 201758Z AUTO 20006KT 10SM SCT070 BKN085 BKN110 15/14 A2976 RMK AO2 SLP081 60012 T01470143 10149 20137 51013
Loading
Personal Weather Stations






























Interactive Weather Map
Tropical Storm Tracking
New forecast layout! Learn more

10-Day Weather Forecast

Advertisements
Track Severe Weather on mobile